createdAt,value
2017-12-10T00:01:44.847Z,4.47
2017-12-10T00:04:12.099Z,4.10
2017-12-10T00:06:39.346Z,4.00
2017-12-10T00:09:06.612Z,4.60
2017-12-10T00:11:33.865Z,4.00
2017-12-10T00:14:01.138Z,4.90
2017-12-10T00:16:28.386Z,3.57
2017-12-10T00:18:55.656Z,3.40
2017-12-10T00:21:22.907Z,3.50
2017-12-10T00:23:50.178Z,3.93
2017-12-10T00:26:17.424Z,3.53
2017-12-10T00:28:44.735Z,2.97
2017-12-10T00:31:11.985Z,2.83
2017-12-10T00:33:39.258Z,3.37
2017-12-10T00:36:06.501Z,2.90
2017-12-10T00:38:33.768Z,3.27
2017-12-10T00:41:01.008Z,3.70
2017-12-10T00:43:28.272Z,3.70
2017-12-10T00:45:55.608Z,3.23
2017-12-10T00:48:22.873Z,3.60
2017-12-10T00:50:50.120Z,2.70
2017-12-10T00:53:17.366Z,3.10
2017-12-10T00:55:44.633Z,3.10
2017-12-10T00:58:11.885Z,2.90
2017-12-10T01:00:39.144Z,3.03
2017-12-10T01:03:06.392Z,3.00
2017-12-10T01:05:33.661Z,3.80
2017-12-10T01:08:00.908Z,2.60
2017-12-10T01:10:28.179Z,3.70
2017-12-10T01:12:55.420Z,2.97
2017-12-10T01:15:22.692Z,2.73
2017-12-10T01:17:49.937Z,3.00
2017-12-10T01:20:17.211Z,3.00
2017-12-10T01:22:44.461Z,3.17
2017-12-10T01:25:11.741Z,3.40
2017-12-10T01:27:38.986Z,3.10
2017-12-10T01:30:06.262Z,3.47
2017-12-10T01:32:33.509Z,4.00
2017-12-10T01:35:00.757Z,3.87
2017-12-10T01:37:28.017Z,4.20
2017-12-10T01:39:55.265Z,5.03
2017-12-10T01:42:22.529Z,4.70
2017-12-10T01:44:49.776Z,5.00
2017-12-10T01:47:17.040Z,5.70
2017-12-10T01:49:44.290Z,4.97
2017-12-10T01:52:11.556Z,5.70
2017-12-10T01:54:38.809Z,6.07
2017-12-10T01:57:06.072Z,5.70
2017-12-10T01:59:33.316Z,5.90
2017-12-10T02:02:00.596Z,5.60
2017-12-10T02:04:27.829Z,5.00
2017-12-10T02:06:55.102Z,4.70
2017-12-10T02:09:22.350Z,4.47
2017-12-10T02:11:49.628Z,4.87
2017-12-10T02:14:16.873Z,4.37
2017-12-10T02:16:44.117Z,4.40
2017-12-10T02:19:11.389Z,4.63
2017-12-10T02:21:38.640Z,4.60
2017-12-10T02:24:05.908Z,4.50
2017-12-10T02:26:33.156Z,4.80
2017-12-10T02:29:00.429Z,4.70
2017-12-10T02:31:27.682Z,4.97
2017-12-10T02:33:54.946Z,5.63
2017-12-10T02:36:22.202Z,4.73
2017-12-10T02:38:49.468Z,4.47
2017-12-10T02:41:16.720Z,5.83
2017-12-10T02:43:43.993Z,5.33
2017-12-10T02:46:11.254Z,5.60
2017-12-10T02:48:38.525Z,5.40
2017-12-10T02:51:05.774Z,5.03
2017-12-10T02:53:33.040Z,5.67
2017-12-10T02:56:00.298Z,6.20
2017-12-10T02:58:27.578Z,5.10
2017-12-10T03:00:54.852Z,5.60
2017-12-10T03:03:22.109Z,5.90
2017-12-10T03:05:49.382Z,5.80
2017-12-10T03:08:16.632Z,5.00
2017-12-10T03:10:43.900Z,4.90
2017-12-10T03:13:11.152Z,5.50
2017-12-10T03:15:38.419Z,6.23
2017-12-10T03:18:05.670Z,6.20
2017-12-10T03:20:32.942Z,5.00
2017-12-10T03:23:00.196Z,4.90
2017-12-10T03:25:27.469Z,5.40
2017-12-10T03:27:54.721Z,5.83
2017-12-10T03:30:22.013Z,5.13
2017-12-10T03:32:49.258Z,5.03
2017-12-10T03:35:16.518Z,5.70
2017-12-10T03:37:43.776Z,5.83
2017-12-10T03:40:11.026Z,4.87
2017-12-10T03:42:38.293Z,6.37
2017-12-10T03:45:05.536Z,5.77
2017-12-10T03:47:32.806Z,5.17
2017-12-10T03:50:00.066Z,5.83
2017-12-10T03:52:27.326Z,5.07
2017-12-10T03:54:54.572Z,5.60
2017-12-10T03:57:21.844Z,5.50
2017-12-10T03:59:49.092Z,5.80
2017-12-10T04:02:16.365Z,5.20
2017-12-10T04:04:43.616Z,4.97
2017-12-10T04:07:10.884Z,5.70
2017-12-10T04:09:38.142Z,4.90
2017-12-10T04:12:05.398Z,5.47
2017-12-10T04:14:32.671Z,5.70
2017-12-10T04:16:59.920Z,5.27
2017-12-10T04:19:27.194Z,5.90
2017-12-10T04:21:54.436Z,4.73
2017-12-10T04:24:21.700Z,5.20
2017-12-10T04:26:48.957Z,5.50
2017-12-10T04:29:16.236Z,5.70
2017-12-10T04:31:43.494Z,4.77
2017-12-10T04:34:10.756Z,5.10
2017-12-10T04:36:38.013Z,5.67
2017-12-10T04:39:05.281Z,5.07
2017-12-10T04:41:32.524Z,5.93
2017-12-10T04:43:59.856Z,4.90
2017-12-10T04:46:27.041Z,6.20
2017-12-10T04:48:54.312Z,5.17
2017-12-10T04:51:21.565Z,6.20
2017-12-10T04:53:48.845Z,5.57
2017-12-10T04:56:16.156Z,6.23
2017-12-10T04:58:43.409Z,5.17
2017-12-10T05:01:10.669Z,6.13
2017-12-10T05:03:37.933Z,5.93
2017-12-10T05:06:05.200Z,7.30
2017-12-10T05:08:32.462Z,6.43
2017-12-10T05:10:59.725Z,6.60
2017-12-10T05:13:26.972Z,5.80
2017-12-10T05:15:54.242Z,6.47
2017-12-10T05:18:21.491Z,5.60
2017-12-10T05:20:48.764Z,7.07
2017-12-10T05:23:16.021Z,6.67
2017-12-10T05:25:43.291Z,6.97
2017-12-10T05:28:10.546Z,6.47
2017-12-10T05:30:37.818Z,7.77
2017-12-10T05:33:05.078Z,7.17
2017-12-10T05:35:32.324Z,7.10
2017-12-10T05:37:59.593Z,6.00
2017-12-10T05:40:26.844Z,5.70
2017-12-10T05:42:54.114Z,7.37
2017-12-10T05:45:21.360Z,7.17
2017-12-10T05:47:48.636Z,6.80
2017-12-10T05:50:15.881Z,6.73
2017-12-10T05:52:43.162Z,6.97
2017-12-10T05:55:10.434Z,6.90
2017-12-10T05:57:37.696Z,6.30
2017-12-10T06:00:04.949Z,6.70
2017-12-10T06:02:32.214Z,7.80
2017-12-10T06:04:59.470Z,6.57
2017-12-10T06:07:26.739Z,6.90
2017-12-10T06:09:53.988Z,6.77
2017-12-10T06:12:21.242Z,6.60
2017-12-10T06:14:48.517Z,7.30
2017-12-10T06:17:15.835Z,7.20
2017-12-10T06:19:43.115Z,8.30
2017-12-10T06:22:10.441Z,7.80
2017-12-10T06:24:37.699Z,8.17
2017-12-10T06:27:04.949Z,8.00
2017-12-10T06:29:32.229Z,7.37
2017-12-10T06:31:59.506Z,8.30
2017-12-10T06:34:26.792Z,8.87
2017-12-10T06:36:54.120Z,8.70
2017-12-10T06:39:21.381Z,9.30
2017-12-10T06:41:48.692Z,8.97
2017-12-10T06:44:16.021Z,8.20
2017-12-10T06:46:43.279Z,9.13
2017-12-10T06:49:10.564Z,8.73
2017-12-10T06:51:37.891Z,9.70
2017-12-10T06:54:05.147Z,9.10
2017-12-10T06:56:32.460Z,8.40
2017-12-10T06:58:59.751Z,8.47
2017-12-10T07:01:27.002Z,8.90
2017-12-10T07:03:54.284Z,9.53
2017-12-10T07:06:21.591Z,9.37
2017-12-10T07:08:48.813Z,9.13
2017-12-10T07:11:16.065Z,8.17
2017-12-10T07:13:43.345Z,7.73
2017-12-10T07:16:10.623Z,8.00
2017-12-10T07:18:37.905Z,9.30
2017-12-10T07:21:05.194Z,9.57
2017-12-10T07:23:32.447Z,8.80
2017-12-10T07:25:59.740Z,8.73
2017-12-10T07:28:26.998Z,8.20
2017-12-10T07:30:56.013Z,8.50
2017-12-10T07:33:23.292Z,8.30
2017-12-10T07:35:50.733Z,6.80
2017-12-10T07:41:02.697Z,7.00
2017-12-10T07:43:29.975Z,7.53
2017-12-10T07:45:57.225Z,7.30
2017-12-10T07:48:24.514Z,7.03
2017-12-10T07:50:51.782Z,7.97
2017-12-10T07:53:19.033Z,7.90
2017-12-10T07:55:46.316Z,7.17
2017-12-10T07:58:13.588Z,7.70
2017-12-10T08:00:40.864Z,7.70
2017-12-10T08:03:08.112Z,8.73
2017-12-10T08:05:35.393Z,7.27
2017-12-10T08:08:07.427Z,7.90
2017-12-10T08:10:37.324Z,7.10
2017-12-10T08:13:04.604Z,7.30
2017-12-10T08:15:31.844Z,7.53
2017-12-10T08:17:59.113Z,7.40
2017-12-10T08:20:26.364Z,7.30
2017-12-10T08:22:53.645Z,7.47
2017-12-10T08:25:27.379Z,6.43
2017-12-10T08:27:54.706Z,7.37
2017-12-10T08:30:21.977Z,7.77
2017-12-10T08:32:49.261Z,8.33
2017-12-10T08:35:16.514Z,7.70
2017-12-10T08:37:43.792Z,7.37
2017-12-10T08:40:11.040Z,8.13
2017-12-10T08:42:38.329Z,7.03
2017-12-10T08:45:05.584Z,7.80
2017-12-10T08:47:32.840Z,6.73
2017-12-10T08:50:00.122Z,6.10
2017-12-10T08:52:27.368Z,5.67
2017-12-10T08:54:54.617Z,5.60
2017-12-10T08:57:21.912Z,5.13
2017-12-10T08:59:49.180Z,5.87
2017-12-10T09:02:16.430Z,5.03
2017-12-10T09:04:43.770Z,5.20
2017-12-10T09:07:11.121Z,5.50
2017-12-10T09:09:38.565Z,5.37
2017-12-10T09:12:05.828Z,5.10
2017-12-10T09:14:33.084Z,5.20
2017-12-10T09:17:00.363Z,4.40
2017-12-10T09:19:27.680Z,3.60
2017-12-10T09:21:54.948Z,4.47
2017-12-10T09:24:22.204Z,3.60
2017-12-10T09:26:49.480Z,3.70
2017-12-10T09:29:16.740Z,3.87
2017-12-10T09:31:43.992Z,4.43
2017-12-10T09:34:11.273Z,4.97
2017-12-10T09:36:38.521Z,4.23
2017-12-10T09:39:05.774Z,4.53
2017-12-10T09:41:33.117Z,3.90
2017-12-10T09:44:00.337Z,4.83
2017-12-10T09:46:27.597Z,3.97
2017-12-10T09:48:54.865Z,3.97
2017-12-10T09:51:22.147Z,4.40
2017-12-10T09:53:49.416Z,3.70
2017-12-10T09:56:16.666Z,4.00
2017-12-10T09:58:43.939Z,4.03
2017-12-10T10:01:11.205Z,4.23
2017-12-10T10:03:38.468Z,4.13
2017-12-10T10:06:05.744Z,4.07
2017-12-10T10:08:33.001Z,4.77
2017-12-10T10:11:00.264Z,3.90
2017-12-10T10:13:27.536Z,3.87
2017-12-10T10:15:54.808Z,5.57
2017-12-10T10:18:22.090Z,3.20
2017-12-10T10:20:49.327Z,3.37
2017-12-10T10:23:16.630Z,2.83
2017-12-10T10:25:43.896Z,3.90
2017-12-10T10:28:11.150Z,3.20
2017-12-10T10:30:38.422Z,3.43
2017-12-10T10:33:05.679Z,2.73
2017-12-10T10:35:32.969Z,11.50
2017-12-10T10:38:00.221Z,3.67
2017-12-10T10:40:27.485Z,2.73
2017-12-10T10:42:54.760Z,5.70
2017-12-10T10:45:22.021Z,5.77
2017-12-10T10:47:49.293Z,4.77
2017-12-10T10:50:16.572Z,5.40
2017-12-10T10:52:43.837Z,8.93
2017-12-10T10:55:11.147Z,3.57
2017-12-10T10:57:38.450Z,3.90
2017-12-10T11:00:05.693Z,3.67
2017-12-10T11:02:32.940Z,8.97
2017-12-10T11:05:00.240Z,6.77
2017-12-10T11:07:27.561Z,11.00
2017-12-10T11:09:54.813Z,4.80
2017-12-10T11:12:22.084Z,3.03
2017-12-10T11:14:49.332Z,4.90
2017-12-10T11:17:16.610Z,3.10
2017-12-10T11:19:43.866Z,7.00
2017-12-10T11:22:11.149Z,7.27
2017-12-10T11:24:38.405Z,6.07
2017-12-10T11:27:05.657Z,3.50
2017-12-10T11:29:33.041Z,3.60
2017-12-10T11:32:00.301Z,5.43
2017-12-10T11:34:27.652Z,3.47
2017-12-10T11:36:55.016Z,3.93
2017-12-10T11:39:22.260Z,1.67
2017-12-10T11:41:49.543Z,1.33
2017-12-10T11:44:16.793Z,1.30
2017-12-10T11:46:44.037Z,3.40
2017-12-10T11:49:11.308Z,3.40
2017-12-10T11:51:38.605Z,1.57
2017-12-10T11:54:05.857Z,1.53
2017-12-10T11:56:33.796Z,1.30
2017-12-10T11:59:01.379Z,1.30
2017-12-10T12:01:28.627Z,2.83
2017-12-10T12:03:55.892Z,2.30
2017-12-10T12:06:23.149Z,2.43
2017-12-10T12:08:50.451Z,2.40
2017-12-10T12:11:17.701Z,2.50
2017-12-10T12:13:44.941Z,1.80
2017-12-10T12:16:12.213Z,1.70
2017-12-10T12:18:39.481Z,1.80
2017-12-10T12:21:06.733Z,2.50
2017-12-10T12:23:34.010Z,2.07
2017-12-10T12:26:01.284Z,2.40
2017-12-10T12:28:28.538Z,2.27
2017-12-10T12:30:55.784Z,1.80
2017-12-10T12:33:23.068Z,2.40
2017-12-10T12:35:50.317Z,3.20
2017-12-10T12:38:17.568Z,2.27
2017-12-10T12:40:44.840Z,2.10
2017-12-10T12:43:12.125Z,2.37
2017-12-10T12:45:39.368Z,2.90
2017-12-10T12:48:06.619Z,2.03
2017-12-10T12:50:33.889Z,5.47
2017-12-10T12:53:01.143Z,1.80
2017-12-10T12:55:28.385Z,2.17
2017-12-10T12:57:55.696Z,1.80
2017-12-10T13:00:22.949Z,2.30
2017-12-10T13:02:50.313Z,2.00
2017-12-10T13:05:17.673Z,1.63
2017-12-10T13:07:45.020Z,1.87
2017-12-10T13:10:12.269Z,2.50
2017-12-10T13:12:39.515Z,2.30
2017-12-10T13:15:06.792Z,2.60
2017-12-10T13:17:34.036Z,2.40
2017-12-10T13:20:01.313Z,2.37
2017-12-10T13:22:28.645Z,2.13
2017-12-10T13:24:56.770Z,2.10
2017-12-10T13:27:24.012Z,1.67
2017-12-10T13:29:51.267Z,2.63
2017-12-10T13:32:18.580Z,2.50
2017-12-10T13:34:45.837Z,2.93
2017-12-10T13:37:13.109Z,2.80
2017-12-10T13:39:40.364Z,3.27
2017-12-10T13:42:07.654Z,3.20
2017-12-10T13:44:34.905Z,2.87
2017-12-10T13:47:02.158Z,3.00
2017-12-10T13:49:29.429Z,2.90
2017-12-10T13:51:56.704Z,4.50
2017-12-10T13:54:23.977Z,4.47
2017-12-10T13:56:51.226Z,4.70
2017-12-10T13:59:18.493Z,3.97
2017-12-10T14:01:45.784Z,2.67
2017-12-10T14:04:13.037Z,3.87
2017-12-10T14:06:40.280Z,3.70
2017-12-10T14:09:07.563Z,4.03
2017-12-10T14:11:34.804Z,4.50
2017-12-10T14:14:02.155Z,4.30
2017-12-10T14:16:29.416Z,4.00
2017-12-10T14:18:56.664Z,4.00
2017-12-10T14:21:23.913Z,3.93
2017-12-10T14:23:51.206Z,4.10
2017-12-10T14:26:18.456Z,4.50
2017-12-10T14:28:45.709Z,5.80
2017-12-10T14:31:12.992Z,4.20
2017-12-10T14:33:40.320Z,5.47
2017-12-10T14:36:07.585Z,4.07
2017-12-10T14:38:34.827Z,4.80
2017-12-10T14:41:02.185Z,7.57
2017-12-10T14:43:29.452Z,4.67
2017-12-10T14:45:56.698Z,4.83
2017-12-10T14:48:23.976Z,6.10
2017-12-10T14:50:51.241Z,5.57
2017-12-10T14:53:18.493Z,6.73
2017-12-10T14:55:45.770Z,5.33
2017-12-10T14:58:13.021Z,6.57
2017-12-10T15:00:40.288Z,8.93
2017-12-10T15:03:07.585Z,5.77
2017-12-10T15:05:34.916Z,5.40
2017-12-10T15:08:02.193Z,6.17
2017-12-10T15:10:29.528Z,6.00
2017-12-10T15:12:56.891Z,5.70
2017-12-10T15:15:24.163Z,5.97
2017-12-10T15:17:51.405Z,5.83
2017-12-10T15:20:18.748Z,5.93
2017-12-10T15:22:45.992Z,6.60
2017-12-10T15:25:13.247Z,6.27
2017-12-10T15:27:40.613Z,6.83
2017-12-10T15:30:07.856Z,6.77
2017-12-10T15:32:35.222Z,5.50
2017-12-10T15:35:02.475Z,7.20
2017-12-10T15:37:29.750Z,6.30
2017-12-10T15:39:57.015Z,6.63
2017-12-10T15:42:24.336Z,6.63
2017-12-10T15:44:51.612Z,6.67
2017-12-10T15:47:18.889Z,6.27
2017-12-10T15:49:46.200Z,6.50
2017-12-10T15:52:13.451Z,6.20
2017-12-10T15:54:40.732Z,7.13
2017-12-10T15:57:07.985Z,6.57
2017-12-10T15:59:35.233Z,5.60
2017-12-10T16:02:02.508Z,6.67
2017-12-10T16:04:29.756Z,6.80
2017-12-10T16:06:57.041Z,8.77
2017-12-10T16:09:24.297Z,7.37
2017-12-10T16:11:51.550Z,7.53
2017-12-10T16:14:18.937Z,9.30
2017-12-10T16:16:46.599Z,7.20
2017-12-10T16:19:13.853Z,8.73
2017-12-10T16:21:41.129Z,7.10
2017-12-10T16:24:08.384Z,7.40
2017-12-10T16:26:35.718Z,7.43
2017-12-10T16:29:02.921Z,7.87
2017-12-10T16:31:30.217Z,6.53
2017-12-10T16:33:57.494Z,6.27
2017-12-10T16:36:24.741Z,7.20
2017-12-10T16:38:52.082Z,7.43
2017-12-10T16:41:19.338Z,7.20
2017-12-10T16:43:46.599Z,8.17
2017-12-10T16:46:13.868Z,8.97
2017-12-10T16:48:41.122Z,7.90
2017-12-10T16:51:08.398Z,8.03
2017-12-10T16:53:35.717Z,8.17
2017-12-10T16:56:02.978Z,7.80
2017-12-10T16:58:30.249Z,7.93
2017-12-10T17:00:57.517Z,7.27
2017-12-10T17:03:24.770Z,7.30
2017-12-10T17:05:52.049Z,7.70
2017-12-10T17:08:19.293Z,8.77
2017-12-10T17:10:46.568Z,6.57
2017-12-10T17:13:13.817Z,7.67
2017-12-10T17:15:41.092Z,8.00
2017-12-10T17:18:08.446Z,5.77
2017-12-10T17:20:35.720Z,7.70
2017-12-10T17:23:02.972Z,8.53
2017-12-10T17:25:30.275Z,7.70
2017-12-10T17:27:57.556Z,6.73
2017-12-10T17:30:24.804Z,8.43
2017-12-10T17:32:52.089Z,7.80
2017-12-10T17:35:19.360Z,7.23
2017-12-10T17:37:46.680Z,7.33
2017-12-10T17:40:13.934Z,6.60
2017-12-10T17:42:41.223Z,7.60
2017-12-10T17:45:08.540Z,6.07
2017-12-10T17:47:35.729Z,7.70
2017-12-10T17:50:03.005Z,6.43
2017-12-10T17:52:30.257Z,6.90
2017-12-10T17:54:57.540Z,7.80
2017-12-10T17:57:24.825Z,6.80
2017-12-10T17:59:52.076Z,8.97
2017-12-10T18:02:19.353Z,7.40
2017-12-10T18:04:46.614Z,7.20
2017-12-10T18:07:13.888Z,7.80
2017-12-10T18:09:41.145Z,7.50
2017-12-10T18:12:08.427Z,7.37
2017-12-10T18:14:35.678Z,7.80
2017-12-10T18:17:02.957Z,7.87
2017-12-10T18:19:30.231Z,6.80
2017-12-10T18:21:57.512Z,5.40
2017-12-10T18:24:24.773Z,6.07
2017-12-10T18:26:52.057Z,7.00
2017-12-10T18:29:19.339Z,5.60
2017-12-10T18:31:46.590Z,4.93
2017-12-10T18:34:13.843Z,5.50
2017-12-10T18:36:41.123Z,5.90
2017-12-10T18:39:08.369Z,4.63
2017-12-10T18:41:35.622Z,5.70
2017-12-10T18:44:02.934Z,5.07
2017-12-10T18:46:30.210Z,4.30
2017-12-10T18:48:57.460Z,5.90
2017-12-10T18:51:24.732Z,4.73
2017-12-10T18:53:52.014Z,5.30
2017-12-10T18:56:19.296Z,5.53
2017-12-10T18:58:46.549Z,5.13
2017-12-10T19:01:13.822Z,4.53
2017-12-10T19:03:41.068Z,4.93
2017-12-10T19:06:08.350Z,6.00
2017-12-10T19:08:35.597Z,4.70
2017-12-10T19:11:02.873Z,4.40
2017-12-10T19:13:30.136Z,4.20
2017-12-10T19:15:57.427Z,4.00
2017-12-10T19:18:24.781Z,4.37
2017-12-10T19:20:52.035Z,4.10
2017-12-10T19:23:19.305Z,3.57
2017-12-10T19:25:46.640Z,4.93
2017-12-10T19:28:13.920Z,4.55
2017-12-10T19:30:41.208Z,4.90
2017-12-10T19:33:08.457Z,3.53
2017-12-10T19:35:35.700Z,4.20
2017-12-10T19:38:02.984Z,4.37
2017-12-10T19:40:30.244Z,4.43
2017-12-10T19:42:57.516Z,3.90
2017-12-10T19:45:24.869Z,3.57
2017-12-10T19:47:52.148Z,4.40
2017-12-10T19:50:19.483Z,3.90
2017-12-10T19:52:46.749Z,3.62
2017-12-10T19:55:14.093Z,4.17
2017-12-10T19:57:41.365Z,5.17
2017-12-10T20:00:08.621Z,4.20
2017-12-10T20:02:35.892Z,3.70
2017-12-10T20:05:03.151Z,3.70
2017-12-10T20:07:30.416Z,3.20
2017-12-10T20:09:57.672Z,2.93
2017-12-10T20:12:24.937Z,3.00
2017-12-10T20:14:52.222Z,3.13
2017-12-10T20:17:19.574Z,3.33
2017-12-10T20:19:46.820Z,3.20
2017-12-10T20:22:14.071Z,3.37
2017-12-10T20:24:41.337Z,3.53
2017-12-10T20:27:08.588Z,3.40
2017-12-10T20:29:35.860Z,3.40
2017-12-10T20:32:03.112Z,4.10
2017-12-10T20:34:30.386Z,3.40
2017-12-10T20:36:57.658Z,3.70
2017-12-10T20:39:24.925Z,3.93
2017-12-10T20:41:52.210Z,3.60
2017-12-10T20:44:19.478Z,2.40
2017-12-10T20:46:46.725Z,3.40
2017-12-10T20:49:14.001Z,3.10
2017-12-10T20:51:41.261Z,3.70
2017-12-10T20:54:08.531Z,3.80
2017-12-10T20:56:35.780Z,3.50
2017-12-10T20:59:03.073Z,3.60
2017-12-10T21:01:30.326Z,4.20
2017-12-10T21:03:57.585Z,3.70
2017-12-10T21:06:24.858Z,3.30
2017-12-10T21:08:52.110Z,3.83
2017-12-10T21:11:19.381Z,5.10
2017-12-10T21:13:46.637Z,3.23
2017-12-10T21:16:13.906Z,3.80
2017-12-10T21:18:41.154Z,3.70
2017-12-10T21:21:08.584Z,4.00
2017-12-10T21:23:35.837Z,3.57
2017-12-10T21:26:03.093Z,2.80
2017-12-10T21:28:30.428Z,1.50
2017-12-10T21:30:57.693Z,1.17
2017-12-10T21:33:24.946Z,1.57
2017-12-10T21:35:52.209Z,1.00
2017-12-10T21:38:19.463Z,1.20
2017-12-10T21:40:46.745Z,1.00
2017-12-10T21:43:14.005Z,1.47
2017-12-10T21:45:41.252Z,1.07
2017-12-10T21:48:08.522Z,0.80
2017-12-10T21:50:35.764Z,0.77
2017-12-10T21:53:03.036Z,0.80
2017-12-10T21:55:30.286Z,1.00
2017-12-10T21:57:57.548Z,0.63
2017-12-10T22:00:24.797Z,0.70
2017-12-10T22:02:52.058Z,0.57
2017-12-10T22:05:19.328Z,0.60
2017-12-10T22:07:46.684Z,0.87
2017-12-10T22:10:13.935Z,0.60
2017-12-10T22:12:41.205Z,0.60
2017-12-10T22:15:08.553Z,0.50
2017-12-10T22:17:35.817Z,0.60
2017-12-10T22:20:03.162Z,0.70
2017-12-10T22:22:30.426Z,0.67
2017-12-10T22:24:57.668Z,0.60
2017-12-10T22:27:25.021Z,0.60
2017-12-10T22:29:52.273Z,0.50
2017-12-10T22:32:19.528Z,0.77
2017-12-10T22:34:46.798Z,0.80
2017-12-10T22:37:14.041Z,0.70
2017-12-10T22:39:41.388Z,1.20
2017-12-10T22:42:08.637Z,1.10
2017-12-10T22:44:35.901Z,1.20
2017-12-10T22:47:03.252Z,1.00
2017-12-10T22:49:30.626Z,1.13
2017-12-10T22:51:57.907Z,1.40
2017-12-10T22:54:25.133Z,1.40
2017-12-10T22:56:52.380Z,1.17
2017-12-10T22:59:19.656Z,1.57
2017-12-10T23:01:46.901Z,1.27
2017-12-10T23:04:14.161Z,1.50
2017-12-10T23:06:41.480Z,1.53
2017-12-10T23:09:08.757Z,1.17
2017-12-10T23:11:36.026Z,1.40
2017-12-10T23:14:04.085Z,1.93
2017-12-10T23:16:31.344Z,1.67
2017-12-10T23:18:58.601Z,1.50
2017-12-10T23:21:25.864Z,1.73
2017-12-10T23:23:53.115Z,1.30
2017-12-10T23:26:20.588Z,1.57
2017-12-10T23:28:47.861Z,1.10
2017-12-10T23:31:15.432Z,1.80
2017-12-10T23:33:42.686Z,2.70
2017-12-10T23:36:09.952Z,1.37
2017-12-10T23:38:37.225Z,1.90
2017-12-10T23:41:04.473Z,1.50
2017-12-10T23:43:31.818Z,2.13
2017-12-10T23:45:59.071Z,1.50
2017-12-10T23:48:26.333Z,2.33
2017-12-10T23:50:53.580Z,1.70
2017-12-10T23:53:20.852Z,1.70
2017-12-10T23:55:48.184Z,1.90
2017-12-10T23:58:15.545Z,2.20
